createdAt,value
2022-08-25T00:02:13.487Z,36.63
2022-08-25T00:04:40.477Z,37.24
2022-08-25T00:07:09.253Z,36.96
2022-08-25T00:09:36.086Z,37.11
2022-08-25T00:12:05.237Z,37.04
2022-08-25T00:14:35.317Z,37.14
2022-08-25T00:17:02.762Z,37.01
2022-08-25T00:19:35.030Z,36.77
2022-08-25T00:22:03.035Z,36.71
2022-08-25T00:24:29.869Z,37.49
2022-08-25T00:26:58.181Z,37.57
2022-08-25T00:29:26.567Z,37.13
2022-08-25T00:31:55.097Z,37.22
2022-08-25T00:34:26.742Z,37.14
2022-08-25T00:36:53.746Z,37.08
2022-08-25T00:39:22.850Z,37.59
2022-08-25T00:41:51.554Z,37.92
2022-08-25T00:44:18.957Z,37.32
2022-08-25T00:46:55.087Z,36.93
2022-08-25T00:49:26.208Z,37.08
2022-08-25T00:52:09.259Z,36.32
2022-08-25T00:54:49.747Z,36.33
2022-08-25T00:57:33.916Z,37.40
2022-08-25T01:00:05.065Z,37.95
2022-08-25T01:02:31.750Z,37.70
2022-08-25T01:04:58.900Z,37.75
2022-08-25T01:07:25.555Z,37.44
2022-08-25T01:09:53.431Z,37.82
2022-08-25T01:12:20.622Z,37.77
2022-08-25T01:14:48.769Z,37.66
2022-08-25T01:17:17.090Z,38.06
2022-08-25T01:19:44.157Z,37.83
2022-08-25T01:22:12.150Z,37.67
2022-08-25T01:24:44.816Z,37.80
2022-08-25T01:27:12.127Z,38.20
2022-08-25T01:29:39.284Z,37.73
2022-08-25T01:32:09.357Z,38.01
2022-08-25T01:34:41.255Z,37.95
2022-08-25T01:37:08.796Z,38.24
2022-08-25T01:39:39.895Z,38.37
2022-08-25T01:42:12.272Z,38.04
2022-08-25T01:44:42.533Z,38.21
2022-08-25T01:47:09.933Z,38.15
2022-08-25T01:49:37.026Z,37.95
2022-08-25T01:52:13.308Z,37.51
2022-08-25T01:54:39.860Z,37.88
2022-08-25T01:57:06.834Z,38.36
2022-08-25T01:59:33.524Z,37.84
2022-08-25T02:02:00.382Z,38.06
2022-08-25T02:04:32.239Z,37.89
2022-08-25T02:07:01.170Z,38.10
2022-08-25T02:09:28.163Z,38.22
2022-08-25T02:11:55.241Z,38.72
2022-08-25T02:14:21.959Z,38.25
2022-08-25T02:16:51.080Z,38.29
2022-08-25T02:19:19.732Z,38.53
2022-08-25T02:21:47.243Z,38.32
2022-08-25T02:24:14.458Z,38.36
2022-08-25T02:26:41.439Z,38.52
2022-08-25T02:29:09.034Z,38.95
2022-08-25T02:31:36.391Z,38.85
2022-08-25T02:34:04.351Z,38.92
2022-08-25T02:36:32.177Z,38.34
2022-08-25T02:38:59.569Z,38.40
2022-08-25T02:41:31.028Z,39.09
2022-08-25T02:43:58.973Z,39.28
2022-08-25T02:46:25.800Z,39.20
2022-08-25T02:48:55.349Z,39.23
2022-08-25T02:51:24.426Z,39.07
2022-08-25T02:53:51.341Z,38.87
2022-08-25T02:56:19.148Z,39.04
2022-08-25T02:58:47.036Z,38.83
2022-08-25T03:01:14.973Z,39.26
2022-08-25T03:03:43.462Z,39.40
2022-08-25T03:06:13.188Z,39.21
2022-08-25T03:08:42.171Z,39.52
2022-08-25T03:11:09.764Z,39.39
2022-08-25T03:13:37.283Z,39.31
2022-08-25T03:16:05.976Z,38.98
2022-08-25T03:18:40.267Z,39.01
2022-08-25T03:21:07.517Z,39.23
2022-08-25T03:23:34.630Z,39.57
2022-08-25T03:26:19.758Z,39.48
2022-08-25T03:28:46.293Z,39.53
2022-08-25T03:31:13.476Z,39.60
2022-08-25T03:33:40.316Z,39.51
2022-08-25T03:36:08.679Z,39.45
2022-08-25T03:38:38.380Z,39.84
2022-08-25T03:41:15.606Z,39.09
2022-08-25T03:43:42.629Z,40.02
2022-08-25T03:46:16.941Z,39.71
2022-08-25T03:48:43.570Z,39.92
2022-08-25T03:51:10.174Z,40.12
2022-08-25T03:53:36.810Z,40.23
2022-08-25T03:56:03.590Z,40.14
2022-08-25T03:58:30.151Z,40.02
2022-08-25T04:01:00.514Z,40.42
2022-08-25T04:03:27.289Z,40.21
2022-08-25T04:05:53.903Z,39.77
2022-08-25T04:08:25.835Z,39.97
2022-08-25T04:10:52.444Z,40.20
2022-08-25T04:13:19.610Z,40.42
2022-08-25T04:15:46.258Z,40.20
2022-08-25T04:20:46.578Z,40.01
2022-08-25T04:23:13.487Z,39.98
2022-08-25T04:25:43.980Z,40.46
2022-08-25T04:28:12.859Z,40.07
2022-08-25T04:30:43.391Z,39.90
2022-08-25T04:33:09.975Z,40.08
2022-08-25T04:35:36.569Z,40.06
2022-08-25T04:38:05.095Z,40.96
2022-08-25T04:40:33.586Z,40.71
2022-08-25T04:43:00.297Z,40.35
2022-08-25T04:45:27.023Z,40.97
2022-08-25T04:47:55.137Z,41.00
2022-08-25T04:50:21.856Z,41.28
2022-08-25T04:52:49.433Z,41.86
2022-08-25T04:55:16.227Z,41.15
2022-08-25T04:57:43.394Z,41.02
2022-08-25T05:00:11.629Z,41.11
2022-08-25T05:02:38.162Z,41.23
2022-08-25T05:05:05.122Z,41.13
2022-08-25T05:07:31.794Z,40.87
2022-08-25T05:09:58.570Z,41.03
2022-08-25T05:12:25.259Z,40.95
2022-08-25T05:14:55.623Z,40.77
2022-08-25T05:17:22.586Z,41.23
2022-08-25T05:19:49.252Z,41.18
2022-08-25T05:22:15.887Z,41.28
2022-08-25T05:24:42.407Z,41.56
2022-08-25T05:27:08.972Z,40.97
2022-08-25T05:29:35.699Z,41.42
2022-08-25T05:32:02.474Z,41.20
2022-08-25T05:34:30.259Z,41.31
2022-08-25T05:37:00.114Z,41.27
2022-08-25T05:39:27.091Z,41.45
2022-08-25T05:41:53.705Z,41.58
2022-08-25T05:44:21.314Z,41.11
2022-08-25T05:46:48.250Z,41.64
2022-08-25T05:49:14.781Z,41.66
2022-08-25T05:51:41.309Z,41.80
2022-08-25T05:54:07.970Z,42.04
2022-08-25T05:56:34.613Z,42.00
2022-08-25T05:59:02.451Z,42.22
2022-08-25T06:01:50.267Z,42.42
2022-08-25T06:04:18.132Z,42.67
2022-08-25T06:06:44.841Z,42.69
2022-08-25T06:09:11.873Z,43.92
2022-08-25T06:11:40.374Z,43.80
2022-08-25T06:14:08.863Z,44.74
2022-08-25T06:16:35.593Z,44.74
2022-08-25T06:19:02.281Z,45.04
2022-08-25T06:21:29.358Z,44.56
2022-08-25T06:23:56.012Z,45.45
2022-08-25T06:26:23.508Z,45.26
2022-08-25T06:28:51.272Z,45.31
2022-08-25T06:31:19.659Z,46.14
2022-08-25T06:33:46.459Z,46.19
2022-08-25T06:36:13.058Z,46.74
2022-08-25T06:38:39.698Z,47.00
2022-08-25T06:41:08.038Z,46.81
2022-08-25T06:43:35.083Z,47.23
2022-08-25T06:46:18.713Z,45.27
2022-08-25T06:48:45.402Z,47.62
2022-08-25T06:51:15.186Z,47.05
2022-08-25T06:53:43.496Z,47.53
2022-08-25T06:56:10.969Z,47.90
2022-08-25T06:58:38.669Z,47.91
2022-08-25T07:01:22.267Z,46.15
2022-08-25T07:03:52.629Z,47.19
2022-08-25T07:06:19.882Z,47.77
2022-08-25T07:08:48.962Z,47.62
2022-08-25T07:11:17.589Z,48.17
2022-08-25T07:13:45.539Z,47.73
2022-08-25T07:16:12.596Z,47.70
2022-08-25T07:18:39.287Z,48.18
2022-08-25T07:21:08.781Z,47.75
2022-08-25T07:23:36.632Z,47.44
2022-08-25T07:26:15.747Z,47.04
2022-08-25T07:28:53.751Z,48.28
2022-08-25T07:31:21.581Z,48.42
2022-08-25T07:34:14.849Z,47.75
2022-08-25T07:36:43.446Z,47.37
2022-08-25T07:39:10.610Z,46.92
2022-08-25T07:41:39.507Z,47.36
2022-08-25T07:44:07.698Z,47.00
2022-08-25T07:46:34.364Z,46.67
2022-08-25T07:49:01.002Z,47.11
2022-08-25T07:54:15.062Z,46.55
2022-08-25T07:56:43.147Z,46.40
2022-08-25T07:59:12.598Z,46.42
2022-08-25T08:01:40.239Z,46.37
2022-08-25T08:04:07.581Z,45.83
2022-08-25T08:06:34.275Z,46.15
2022-08-25T08:09:02.713Z,45.94
2022-08-25T08:11:34.608Z,45.98
2022-08-25T08:14:02.236Z,46.04
2022-08-25T08:16:30.607Z,45.78
2022-08-25T08:18:58.505Z,45.89
2022-08-25T08:21:33.029Z,44.94
2022-08-25T08:24:00.734Z,45.38
2022-08-25T08:26:48.097Z,45.26
2022-08-25T08:29:16.435Z,45.41
2022-08-25T08:31:48.571Z,45.00
2022-08-25T08:34:16.377Z,44.86
2022-08-25T08:36:43.312Z,44.69
2022-08-25T08:39:12.003Z,45.17
2022-08-25T08:42:17.205Z,43.89
2022-08-25T08:44:46.555Z,44.67
2022-08-25T08:47:28.240Z,43.96
2022-08-25T08:50:34.803Z,43.16
2022-08-25T08:53:22.829Z,43.13
2022-08-25T08:55:53.802Z,43.53
2022-08-25T08:58:34.245Z,42.98
2022-08-25T09:01:02.294Z,42.96
2022-08-25T09:03:39.732Z,42.57
2022-08-25T09:06:17.714Z,42.19
2022-08-25T09:08:45.167Z,42.24
2022-08-25T09:11:18.997Z,42.41
2022-08-25T09:14:09.499Z,41.98
2022-08-25T09:17:06.118Z,41.46
2022-08-25T09:19:54.405Z,40.79
2022-08-25T09:22:35.665Z,40.75
2022-08-25T09:25:29.587Z,40.60
2022-08-25T09:28:08.685Z,40.26
2022-08-25T09:30:59.805Z,40.48
2022-08-25T09:33:29.040Z,40.64
2022-08-25T09:35:57.324Z,39.75
2022-08-25T09:38:26.340Z,39.74
2022-08-25T09:40:58.931Z,39.91
2022-08-25T09:43:40.360Z,39.70
2022-08-25T09:46:27.097Z,39.64
2022-08-25T09:48:56.687Z,39.37
2022-08-25T09:51:41.590Z,39.54
2022-08-25T09:54:15.738Z,39.05
2022-08-25T09:57:09.275Z,38.81
2022-08-25T09:59:37.577Z,38.63
2022-08-25T10:02:24.373Z,38.67
2022-08-25T10:04:52.319Z,38.57
2022-08-25T10:07:26.793Z,38.21
2022-08-25T10:09:56.866Z,37.71
2022-08-25T10:12:32.189Z,37.90
2022-08-25T10:19:45.009Z,37.32
2022-08-25T10:22:20.452Z,37.66
2022-08-25T10:24:47.360Z,37.45
2022-08-25T10:27:36.754Z,36.82
2022-08-25T10:30:11.125Z,36.81
2022-08-25T10:33:21.296Z,37.46
2022-08-25T10:36:06.689Z,36.59
2022-08-25T10:38:36.655Z,36.28
2022-08-25T10:41:25.040Z,36.62
2022-08-25T10:44:31.172Z,36.54
2022-08-25T10:47:13.473Z,36.67
2022-08-25T10:49:47.522Z,36.10
2022-08-25T10:52:29.134Z,35.65
2022-08-25T10:55:09.114Z,35.53
2022-08-25T10:57:47.313Z,35.60
2022-08-25T11:00:23.732Z,35.38
2022-08-25T11:03:22.970Z,35.42
2022-08-25T11:05:59.206Z,35.28
2022-08-25T11:08:39.924Z,35.83
2022-08-25T11:11:30.910Z,35.88
2022-08-25T11:14:12.289Z,35.68
2022-08-25T11:16:52.698Z,35.20
2022-08-25T11:19:26.999Z,34.79
2022-08-25T11:22:12.554Z,34.77
2022-08-25T11:24:49.515Z,34.77
2022-08-25T11:27:24.379Z,34.18
2022-08-25T11:30:07.038Z,34.09
2022-08-25T11:32:35.699Z,33.64
2022-08-25T11:35:05.595Z,33.15
2022-08-25T11:37:33.192Z,32.95
2022-08-25T11:40:51.908Z,33.97
2022-08-25T11:43:45.977Z,33.97
2022-08-25T11:46:40.390Z,33.92
2022-08-25T11:49:09.626Z,31.95
2022-08-25T11:51:47.795Z,32.53
2022-08-25T11:54:17.633Z,32.14
2022-08-25T11:57:04.947Z,32.97
2022-08-25T11:59:49.724Z,32.99
2022-08-25T12:02:31.198Z,33.22
2022-08-25T12:04:57.992Z,32.45
2022-08-25T12:07:47.374Z,32.45
2022-08-25T12:10:21.803Z,32.49
2022-08-25T12:12:49.307Z,31.77
2022-08-25T12:15:42.847Z,32.11
2022-08-25T12:18:18.722Z,31.99
2022-08-25T12:20:54.967Z,32.81
2022-08-25T12:23:44.990Z,32.04
2022-08-25T12:27:03.349Z,32.25
2022-08-25T12:29:42.774Z,31.51
2022-08-25T12:32:41.572Z,32.47
2022-08-25T12:35:46.513Z,31.77
2022-08-25T12:38:42.582Z,32.14
2022-08-25T12:41:12.220Z,32.65
2022-08-25T12:43:42.396Z,31.79
2022-08-25T12:46:21.580Z,32.20
2022-08-25T12:48:58.544Z,32.13
2022-08-25T12:51:27.865Z,30.94
2022-08-25T12:54:19.042Z,31.77
2022-08-25T12:57:03.132Z,31.27
2022-08-25T12:59:33.070Z,30.50
2022-08-25T13:02:33.590Z,31.29
2022-08-25T13:05:16.815Z,30.57
2022-08-25T13:07:43.293Z,29.75
2022-08-25T13:10:42.413Z,30.30
2022-08-25T13:13:08.982Z,29.55
2022-08-25T13:15:47.023Z,29.45
2022-08-25T13:18:20.023Z,29.81
2022-08-25T13:20:54.902Z,30.15
2022-08-25T13:23:29.204Z,29.86
2022-08-25T13:25:58.322Z,29.14
2022-08-25T13:28:32.113Z,29.45
2022-08-25T13:31:06.208Z,29.40
2022-08-25T13:33:34.146Z,29.11
2022-08-25T13:36:20.666Z,28.67
2022-08-25T13:38:49.140Z,28.30
2022-08-25T13:41:28.744Z,28.49
2022-08-25T13:44:00.861Z,28.14
2022-08-25T13:46:28.785Z,28.01
2022-08-25T13:49:08.932Z,28.95
2022-08-25T13:51:36.548Z,28.35
2022-08-25T13:54:07.202Z,28.32
2022-08-25T13:56:41.576Z,28.82
2022-08-25T13:59:23.079Z,28.90
2022-08-25T14:01:52.313Z,28.25
2022-08-25T14:04:31.993Z,28.69
2022-08-25T14:07:26.951Z,29.00
2022-08-25T14:27:15.512Z,28.67
2022-08-25T14:29:42.124Z,28.63
2022-08-25T14:32:09.950Z,29.03
2022-08-25T14:34:38.636Z,28.99
2022-08-25T14:37:12.460Z,29.22
2022-08-25T14:39:42.422Z,29.05
2022-08-25T14:42:11.758Z,28.94
2022-08-25T14:44:38.479Z,28.88
2022-08-25T14:47:07.307Z,29.04
2022-08-25T14:49:38.262Z,29.72
2022-08-25T14:52:09.792Z,29.99
2022-08-25T14:54:37.723Z,29.84
2022-08-25T14:57:04.479Z,29.89
2022-08-25T14:59:35.102Z,30.08
2022-08-25T15:02:02.278Z,30.25
2022-08-25T15:04:30.130Z,30.03
2022-08-25T15:07:02.797Z,30.47
2022-08-25T15:09:33.661Z,30.11
2022-08-25T15:12:00.847Z,30.37
2022-08-25T15:14:29.073Z,30.23
2022-08-25T15:17:00.960Z,30.10
2022-08-25T15:19:28.503Z,30.07
2022-08-25T15:21:58.129Z,30.10
2022-08-25T15:24:27.655Z,29.89
2022-08-25T15:27:15.222Z,30.31
2022-08-25T15:29:41.787Z,29.85
2022-08-25T15:32:08.826Z,29.78
2022-08-25T15:34:36.678Z,29.71
2022-08-25T15:37:15.206Z,29.76
2022-08-25T15:39:43.535Z,29.89
2022-08-25T15:42:12.335Z,30.03
2022-08-25T15:44:40.219Z,30.02
2022-08-25T15:47:08.453Z,30.28
2022-08-25T15:49:39.545Z,30.44
2022-08-25T15:52:06.368Z,30.53
2022-08-25T15:54:33.287Z,30.22
2022-08-25T15:57:00.272Z,30.32
2022-08-25T15:59:28.148Z,30.56
2022-08-25T16:01:55.221Z,30.59
2022-08-25T16:04:24.621Z,30.54
2022-08-25T16:06:52.061Z,30.45
2022-08-25T16:09:23.091Z,30.37
2022-08-25T16:11:56.168Z,30.48
2022-08-25T16:14:23.792Z,30.49
2022-08-25T16:16:51.632Z,30.61
2022-08-25T16:19:18.324Z,30.47
2022-08-25T16:21:47.458Z,30.36
2022-08-25T16:24:14.725Z,30.46
2022-08-25T16:26:45.134Z,30.29
2022-08-25T16:29:15.660Z,30.34
2022-08-25T16:35:11.770Z,30.54
2022-08-25T16:37:38.369Z,30.78
2022-08-25T16:40:08.074Z,31.01
2022-08-25T16:42:35.009Z,30.98
2022-08-25T16:45:01.657Z,30.82
2022-08-25T16:47:28.286Z,30.52
2022-08-25T16:49:55.118Z,30.56
2022-08-25T16:52:40.687Z,30.75
2022-08-25T16:55:14.250Z,30.58
2022-08-25T16:57:46.035Z,30.93
2022-08-25T17:00:18.217Z,30.71
2022-08-25T17:02:45.754Z,30.52
2022-08-25T17:05:12.538Z,30.77
2022-08-25T17:07:39.297Z,31.01
2022-08-25T17:10:07.190Z,30.77
2022-08-25T17:12:39.647Z,30.94
2022-08-25T17:15:07.556Z,30.78
2022-08-25T17:17:36.152Z,30.95
2022-08-25T17:20:04.654Z,31.19
2022-08-25T17:22:31.571Z,31.13
2022-08-25T17:25:01.067Z,31.48
2022-08-25T17:27:28.199Z,31.85
2022-08-25T17:29:55.881Z,31.60
2022-08-25T17:32:30.259Z,32.03
2022-08-25T17:34:57.433Z,32.05
2022-08-25T17:37:24.620Z,32.04
2022-08-25T17:39:54.396Z,31.96
2022-08-25T17:42:31.281Z,31.93
2022-08-25T17:44:58.138Z,32.35
2022-08-25T17:47:24.785Z,32.16
2022-08-25T17:49:51.444Z,32.60
2022-08-25T17:52:18.755Z,32.59
2022-08-25T17:54:48.586Z,32.26
2022-08-25T17:57:16.217Z,32.50
2022-08-25T17:59:42.920Z,32.55
2022-08-25T18:02:09.684Z,32.96
2022-08-25T18:04:38.019Z,33.15
2022-08-25T18:07:05.834Z,33.14
2022-08-25T18:09:32.509Z,33.27
2022-08-25T18:11:59.282Z,33.05
2022-08-25T18:14:26.746Z,33.24
2022-08-25T18:16:54.112Z,33.28
2022-08-25T18:19:21.053Z,33.47
2022-08-25T18:21:47.920Z,33.29
2022-08-25T18:24:14.665Z,33.39
2022-08-25T18:26:41.884Z,33.57
2022-08-25T18:29:12.525Z,33.87
2022-08-25T18:31:41.636Z,33.85
2022-08-25T18:34:11.139Z,33.96
2022-08-25T18:36:38.850Z,34.21
2022-08-25T18:39:25.607Z,34.46
2022-08-25T18:41:52.499Z,34.31
2022-08-25T18:44:19.121Z,34.35
2022-08-25T18:46:46.249Z,34.77
2022-08-25T18:49:15.839Z,34.79
2022-08-25T18:51:44.714Z,35.59
2022-08-25T18:54:22.834Z,35.22
2022-08-25T18:56:51.379Z,34.86
2022-08-25T18:59:19.176Z,35.33
2022-08-25T19:01:46.370Z,36.03
2022-08-25T19:04:15.088Z,35.96
2022-08-25T19:06:43.986Z,36.08
2022-08-25T19:09:11.443Z,35.64
2022-08-25T19:11:38.198Z,36.08
2022-08-25T19:14:12.065Z,36.12
2022-08-25T19:16:41.362Z,36.62
2022-08-25T19:19:11.628Z,36.29
2022-08-25T19:21:38.871Z,36.63
2022-08-25T19:24:08.351Z,36.47
2022-08-25T19:26:36.096Z,36.85
2022-08-25T19:29:08.900Z,37.06
2022-08-25T19:31:36.523Z,37.14
2022-08-25T19:34:03.952Z,37.13
2022-08-25T19:36:31.358Z,37.27
2022-08-25T19:39:00.639Z,37.14
2022-08-25T19:41:29.722Z,37.41
2022-08-25T19:43:57.588Z,37.39
2022-08-25T19:46:35.560Z,36.72
2022-08-25T19:49:09.237Z,37.34
2022-08-25T19:51:44.116Z,37.23
2022-08-25T19:54:14.188Z,37.95
2022-08-25T19:56:43.865Z,38.47
2022-08-25T19:59:34.334Z,37.38
2022-08-25T20:02:12.639Z,38.19
2022-08-25T20:04:42.593Z,38.15
2022-08-25T20:07:16.978Z,38.27
2022-08-25T20:09:45.086Z,38.63
2022-08-25T20:12:12.096Z,38.66
2022-08-25T20:14:39.558Z,39.11
2022-08-25T20:17:14.713Z,38.74
2022-08-25T20:19:52.443Z,39.37
2022-08-25T20:22:19.989Z,39.18
2022-08-25T20:24:56.143Z,39.86
2022-08-25T20:27:30.578Z,39.01
2022-08-25T20:29:58.090Z,39.58
2022-08-25T20:32:25.020Z,40.07
2022-08-25T20:34:53.522Z,39.59
2022-08-25T20:37:22.555Z,39.92
2022-08-25T20:39:49.414Z,40.28
2022-08-25T20:42:16.395Z,40.33
2022-08-25T20:44:42.961Z,40.28
2022-08-25T20:47:10.808Z,40.18
2022-08-25T20:49:39.587Z,40.74
2022-08-25T20:52:07.732Z,40.64
2022-08-25T20:54:34.865Z,40.60
2022-08-25T20:57:02.577Z,40.69
2022-08-25T20:59:29.783Z,41.09
2022-08-25T21:01:56.854Z,40.95
2022-08-25T21:04:26.292Z,41.13
2022-08-25T21:06:53.221Z,40.91
2022-08-25T21:09:23.064Z,41.10
2022-08-25T21:11:55.972Z,41.14
2022-08-25T21:14:24.108Z,41.73
2022-08-25T21:16:50.980Z,41.88
2022-08-25T21:19:26.676Z,41.41
2022-08-25T21:22:00.030Z,41.74
2022-08-25T21:24:28.381Z,41.76
2022-08-25T21:26:56.747Z,41.99
2022-08-25T21:29:25.934Z,42.20
2022-08-25T21:31:55.667Z,42.41
2022-08-25T21:34:22.298Z,42.19
2022-08-25T21:36:49.101Z,42.69
2022-08-25T21:39:15.754Z,42.73
2022-08-25T21:41:44.561Z,42.58
2022-08-25T21:44:13.167Z,43.07
2022-08-25T21:46:41.241Z,43.15
2022-08-25T21:49:08.795Z,43.08
2022-08-25T21:51:42.667Z,42.40
2022-08-25T21:54:16.040Z,42.71
2022-08-25T21:56:54.063Z,42.57
2022-08-25T21:59:32.072Z,42.72
2022-08-25T22:02:05.042Z,43.69
2022-08-25T22:04:32.409Z,43.92
2022-08-25T22:06:59.313Z,43.69
2022-08-25T22:09:26.640Z,44.31
2022-08-25T22:11:55.685Z,43.95
2022-08-25T22:14:23.722Z,44.06
2022-08-25T22:16:50.642Z,43.78
2022-08-25T22:19:17.498Z,44.30
2022-08-25T22:21:45.038Z,44.51
2022-08-25T22:24:12.013Z,44.79
2022-08-25T22:26:39.664Z,44.36
2022-08-25T22:29:06.550Z,44.52
2022-08-25T22:31:33.812Z,44.65
2022-08-25T22:34:00.650Z,44.82
2022-08-25T22:36:35.504Z,43.55
2022-08-25T22:39:04.373Z,44.39
2022-08-25T22:41:31.627Z,44.63
2022-08-25T22:44:00.510Z,45.03
2022-08-25T22:46:32.540Z,44.74
2022-08-25T22:48:59.960Z,44.55
2022-08-25T22:51:31.576Z,44.51
2022-08-25T22:53:59.519Z,45.60
2022-08-25T22:56:32.681Z,44.32
2022-08-25T22:59:02.877Z,44.95
2022-08-25T23:01:31.965Z,44.85
2022-08-25T23:04:00.985Z,44.67
2022-08-25T23:06:29.178Z,45.42
2022-08-25T23:08:56.315Z,45.55
2022-08-25T23:11:24.556Z,45.27
2022-08-25T23:13:55.327Z,44.52
2022-08-25T23:16:22.676Z,45.32
2022-08-25T23:18:49.399Z,45.19
2022-08-25T23:21:35.323Z,44.80
2022-08-25T23:24:08.891Z,45.18
2022-08-25T23:26:38.075Z,45.16
2022-08-25T23:29:18.006Z,44.97
2022-08-25T23:31:47.118Z,44.95
2022-08-25T23:34:16.594Z,44.98
2022-08-25T23:36:43.798Z,45.26
2022-08-25T23:39:11.396Z,45.21
2022-08-25T23:41:38.323Z,44.91
2022-08-25T23:44:05.815Z,44.93
2022-08-25T23:46:35.078Z,45.30
2022-08-25T23:49:03.972Z,45.17
2022-08-25T23:51:37.341Z,44.73
2022-08-25T23:54:09.427Z,45.17
2022-08-25T23:56:44.730Z,45.10
2022-08-25T23:59:18.140Z,45.17
